createdAt,value
2017-05-12T00:00:52.157Z,5.95
2017-05-12T00:03:20.476Z,5.95
2017-05-12T00:05:49.546Z,6.07
2017-05-12T00:08:17.938Z,5.17
2017-05-12T00:16:39.462Z,6.58
2017-05-12T00:19:08.545Z,6.30
2017-05-12T00:21:36.941Z,5.17
2017-05-12T00:24:05.364Z,6.43
2017-05-12T00:26:33.755Z,7.02
2017-05-12T00:29:02.114Z,6.58
2017-05-12T00:31:31.002Z,6.67
2017-05-12T00:33:59.333Z,5.63
2017-05-12T00:36:27.654Z,6.70
2017-05-12T00:38:56.068Z,7.42
2017-05-12T00:41:24.402Z,6.43
2017-05-12T00:43:52.724Z,7.37
2017-05-12T00:46:21.227Z,6.45
2017-05-12T00:48:50.292Z,8.80
2017-05-12T00:51:19.756Z,6.88
2017-05-12T00:53:48.356Z,6.55
2017-05-12T00:56:18.741Z,7.08
2017-05-12T00:58:47.347Z,7.52
2017-05-12T01:01:18.339Z,7.68
2017-05-12T01:03:46.691Z,7.13
2017-05-12T01:06:15.025Z,7.48
2017-05-12T01:08:43.351Z,7.45
2017-05-12T01:11:11.877Z,7.65
2017-05-12T01:13:40.209Z,6.85
2017-05-12T01:16:08.546Z,7.83
2017-05-12T01:18:37.065Z,7.78
2017-05-12T01:21:05.409Z,7.78
2017-05-12T01:23:33.749Z,7.73
2017-05-12T01:26:02.349Z,7.70
2017-05-12T01:28:31.426Z,7.60
2017-05-12T01:30:59.763Z,6.60
2017-05-12T01:33:28.141Z,7.72
2017-05-12T01:35:56.710Z,8.63
2017-05-12T01:38:25.046Z,8.00
2017-05-12T01:40:53.641Z,7.27
2017-05-12T01:43:22.750Z,7.40
2017-05-12T01:45:51.098Z,7.40
2017-05-12T01:48:19.597Z,8.08
2017-05-12T01:50:48.667Z,7.55
2017-05-12T01:53:17.008Z,7.58
2017-05-12T01:55:45.651Z,7.55
2017-05-12T01:58:14.748Z,8.47
2017-05-12T02:00:43.882Z,9.12
2017-05-12T02:03:12.352Z,8.77
2017-05-12T02:05:40.708Z,7.72
2017-05-12T02:08:09.793Z,8.25
2017-05-12T02:10:38.909Z,8.57
2017-05-12T02:13:07.255Z,8.75
2017-05-12T02:15:35.664Z,8.92
2017-05-12T02:18:04.069Z,8.82
2017-05-12T02:20:32.424Z,10.78
2017-05-12T02:23:00.797Z,9.88
2017-05-12T02:25:29.285Z,10.07
2017-05-12T02:27:57.615Z,9.98
2017-05-12T02:30:25.961Z,9.90
2017-05-12T02:32:54.473Z,9.67
2017-05-12T02:35:22.821Z,10.57
2017-05-12T02:37:51.180Z,10.48
2017-05-12T02:40:19.553Z,11.55
2017-05-12T02:42:47.884Z,10.60
2017-05-12T02:45:16.258Z,10.50
2017-05-12T02:47:44.921Z,10.48
2017-05-12T02:50:13.359Z,10.67
2017-05-12T02:52:41.708Z,11.38
2017-05-12T02:55:10.200Z,11.82
2017-05-12T02:57:39.321Z,12.62
2017-05-12T03:00:07.665Z,11.53
2017-05-12T03:02:36.049Z,11.87
2017-05-12T03:05:04.380Z,13.15
2017-05-12T03:07:32.734Z,13.27
2017-05-12T03:10:01.258Z,13.62
2017-05-12T03:12:29.591Z,12.47
2017-05-12T03:14:58.059Z,13.43
2017-05-12T03:17:26.810Z,13.93
2017-05-12T03:19:55.176Z,13.20
2017-05-12T03:22:23.541Z,15.73
2017-05-12T03:24:52.087Z,14.20
2017-05-12T03:27:20.494Z,14.83
2017-05-12T03:29:48.844Z,14.15
2017-05-12T03:32:17.221Z,13.73
2017-05-12T03:34:46.304Z,14.13
2017-05-12T03:37:15.412Z,13.87
2017-05-12T03:39:43.848Z,16.03
2017-05-12T03:42:12.171Z,15.97
2017-05-12T03:44:41.255Z,15.72
2017-05-12T03:47:09.636Z,16.27
2017-05-12T03:49:37.965Z,16.27
2017-05-12T03:52:06.341Z,14.12
2017-05-12T03:54:34.722Z,17.00
2017-05-12T03:57:03.801Z,15.02
2017-05-12T03:59:32.143Z,16.13
2017-05-12T04:02:01.558Z,15.52
2017-05-12T04:04:29.900Z,16.40
2017-05-12T04:06:58.237Z,17.23
2017-05-12T04:09:26.793Z,16.23
2017-05-12T04:11:55.126Z,16.65
2017-05-12T04:14:23.481Z,17.97
2017-05-12T04:16:52.473Z,16.87
2017-05-12T04:19:20.815Z,15.60
2017-05-12T04:21:49.164Z,17.58
2017-05-12T04:24:18.289Z,17.82
2017-05-12T04:26:46.636Z,17.12
2017-05-12T04:29:14.991Z,17.22
2017-05-12T04:31:43.766Z,17.72
2017-05-12T04:34:12.112Z,18.10
2017-05-12T04:36:41.085Z,17.57
2017-05-12T04:39:10.221Z,18.30
2017-05-12T04:41:38.544Z,19.05
2017-05-12T04:44:06.923Z,17.60
2017-05-12T04:46:35.328Z,17.38
2017-05-12T04:49:04.421Z,19.52
2017-05-12T04:51:32.760Z,17.38
2017-05-12T04:54:01.188Z,19.65
2017-05-12T04:56:29.540Z,17.23
2017-05-12T04:58:58.165Z,20.02
2017-05-12T05:01:26.748Z,19.58
2017-05-12T05:03:55.077Z,20.15
2017-05-12T05:06:23.403Z,19.35
2017-05-12T05:08:51.772Z,19.40
2017-05-12T05:11:21.512Z,19.77
2017-05-12T05:13:49.872Z,19.72
2017-05-12T05:16:18.479Z,20.10
2017-05-12T05:18:46.827Z,18.68
2017-05-12T05:21:15.164Z,19.77
2017-05-12T05:23:44.108Z,20.85
2017-05-12T05:26:12.530Z,21.27
2017-05-12T05:28:40.865Z,19.87
2017-05-12T05:31:09.356Z,19.55
2017-05-12T05:33:37.952Z,20.95
2017-05-12T05:36:07.224Z,19.48
2017-05-12T05:38:35.746Z,19.18
2017-05-12T05:41:04.096Z,20.08
2017-05-12T05:43:32.445Z,20.98
2017-05-12T05:46:01.047Z,21.83
2017-05-12T05:48:29.380Z,21.67
2017-05-12T05:50:58.456Z,19.98
2017-05-12T05:53:26.857Z,20.22
2017-05-12T05:55:55.927Z,19.85
2017-05-12T05:58:24.305Z,21.87
2017-05-12T06:00:53.055Z,20.77
2017-05-12T06:03:21.392Z,21.58
2017-05-12T06:05:50.454Z,21.97
2017-05-12T06:08:18.954Z,22.00
2017-05-12T06:10:47.292Z,21.48
2017-05-12T06:13:15.645Z,21.98
2017-05-12T06:15:44.118Z,21.60
2017-05-12T06:18:12.461Z,21.37
2017-05-12T06:20:40.812Z,21.43
2017-05-12T06:23:09.360Z,22.47
2017-05-12T06:25:37.709Z,22.17
2017-05-12T06:28:06.094Z,21.72
2017-05-12T06:30:34.570Z,20.28
2017-05-12T06:33:03.661Z,23.53
2017-05-12T06:35:32.005Z,24.43
2017-05-12T06:38:00.689Z,22.70
2017-05-12T06:40:29.029Z,22.43
2017-05-12T06:42:57.362Z,22.45
2017-05-12T06:45:26.084Z,21.70
2017-05-12T06:47:54.440Z,21.70
2017-05-12T06:50:23.524Z,22.43
2017-05-12T06:52:51.904Z,22.58
2017-05-12T06:55:20.247Z,22.03
2017-05-12T06:57:48.592Z,23.05
2017-05-12T07:00:17.176Z,20.98
2017-05-12T07:02:46.263Z,22.80
2017-05-12T07:05:14.782Z,21.25
2017-05-12T07:07:43.161Z,23.12
2017-05-12T07:10:11.501Z,22.30
2017-05-12T07:12:40.576Z,22.28
2017-05-12T07:15:09.305Z,22.35
2017-05-12T07:17:37.660Z,23.63
2017-05-12T07:20:06.734Z,22.95
2017-05-12T07:22:35.448Z,26.72
2017-05-12T07:25:03.777Z,24.32
2017-05-12T07:27:32.117Z,23.47
2017-05-12T07:30:00.677Z,24.72
2017-05-12T07:32:29.765Z,24.67
2017-05-12T07:34:58.859Z,22.98
2017-05-12T07:37:28.166Z,24.63
2017-05-12T07:39:57.276Z,23.70
2017-05-12T07:42:25.610Z,23.78
2017-05-12T07:44:53.989Z,23.77
2017-05-12T07:47:22.331Z,25.10
2017-05-12T07:49:50.678Z,25.38
2017-05-12T07:52:19.946Z,26.07
2017-05-12T07:54:48.280Z,26.27
2017-05-12T07:57:16.614Z,27.73
2017-05-12T07:59:44.983Z,25.15
2017-05-12T08:02:13.317Z,26.47
2017-05-12T08:04:41.649Z,26.68
2017-05-12T08:07:10.971Z,26.42
2017-05-12T08:09:39.321Z,25.05
2017-05-12T08:12:07.686Z,24.83
2017-05-12T08:14:36.237Z,27.90
2017-05-12T08:17:04.565Z,28.28
2017-05-12T08:19:33.658Z,26.07
2017-05-12T08:22:02.144Z,26.50
2017-05-12T08:24:31.225Z,27.80
2017-05-12T08:26:59.569Z,27.87
2017-05-12T08:29:27.936Z,28.30
2017-05-12T08:31:56.267Z,26.83
2017-05-12T08:34:25.344Z,27.27
2017-05-12T08:36:54.101Z,29.85
2017-05-12T08:39:22.471Z,28.28
2017-05-12T08:41:50.799Z,27.92
2017-05-12T08:44:20.125Z,29.25
2017-05-12T08:46:48.481Z,28.12
2017-05-12T08:49:17.584Z,29.52
2017-05-12T08:51:46.695Z,29.92
2017-05-12T08:54:15.023Z,30.33
2017-05-12T08:56:43.384Z,29.32
2017-05-12T08:59:11.939Z,27.35
2017-05-12T09:01:40.277Z,31.15
2017-05-12T09:04:08.677Z,33.08
2017-05-12T09:06:38.084Z,28.82
2017-05-12T09:09:07.168Z,28.50
2017-05-12T09:11:36.261Z,30.05
2017-05-12T09:14:05.429Z,29.10
2017-05-12T09:16:34.541Z,31.57
2017-05-12T09:19:02.868Z,30.82
2017-05-12T09:21:31.457Z,30.02
2017-05-12T09:23:59.799Z,29.87
2017-05-12T09:26:28.117Z,30.37
2017-05-12T09:28:56.869Z,29.25
2017-05-12T09:31:25.208Z,29.35
2017-05-12T09:33:53.541Z,28.73
2017-05-12T09:36:21.940Z,31.95
2017-05-12T09:38:50.286Z,27.60
2017-05-12T09:41:18.646Z,29.75
2017-05-12T09:43:48.062Z,29.10
2017-05-12T09:46:16.450Z,28.03
2017-05-12T09:48:44.791Z,28.65
2017-05-12T09:51:13.301Z,29.23
2017-05-12T09:53:41.734Z,26.70
2017-05-12T09:56:10.071Z,28.15
2017-05-12T09:58:38.468Z,27.50
2017-05-12T10:01:06.822Z,26.13
2017-05-12T10:03:35.173Z,27.53
2017-05-12T10:06:04.292Z,27.28
2017-05-12T10:08:32.632Z,26.47
2017-05-12T10:11:00.977Z,27.15
2017-05-12T10:13:29.344Z,26.83
2017-05-12T10:15:57.672Z,26.03
2017-05-12T10:18:26.001Z,27.20
2017-05-12T10:20:54.648Z,25.48
2017-05-12T10:23:23.744Z,27.73
2017-05-12T10:25:52.076Z,28.37
2017-05-12T10:28:20.918Z,26.18
2017-05-12T10:30:49.315Z,26.20
2017-05-12T10:33:17.647Z,28.00
2017-05-12T10:35:46.317Z,26.67
2017-05-12T10:38:14.696Z,24.28
2017-05-12T10:40:43.028Z,27.27
2017-05-12T10:43:11.440Z,26.73
2017-05-12T10:45:39.779Z,26.72
2017-05-12T10:48:08.113Z,25.90
2017-05-12T10:50:37.342Z,25.50
2017-05-12T10:53:06.420Z,25.80
2017-05-12T10:55:34.814Z,26.02
2017-05-12T10:58:04.116Z,25.97
2017-05-12T11:00:32.459Z,22.23
2017-05-12T11:03:00.804Z,26.02
2017-05-12T11:05:29.280Z,23.82
2017-05-12T11:07:57.612Z,23.87
2017-05-12T11:10:25.938Z,22.83
2017-05-12T11:12:54.593Z,24.45
2017-05-12T11:15:23.759Z,25.95
2017-05-12T11:17:52.120Z,27.92
2017-05-12T11:20:20.866Z,28.50
2017-05-12T11:22:49.204Z,27.52
2017-05-12T11:25:17.542Z,27.80
2017-05-12T11:27:45.996Z,24.98
2017-05-12T11:30:14.331Z,27.12
2017-05-12T11:32:42.654Z,24.47
2017-05-12T11:35:11.042Z,26.98
2017-05-12T11:37:39.373Z,26.10
2017-05-12T11:40:07.721Z,26.37
2017-05-12T11:42:36.186Z,24.47
2017-05-12T11:45:04.520Z,26.45
2017-05-12T11:47:33.603Z,26.85
2017-05-12T11:50:02.219Z,25.65
2017-05-12T11:52:30.567Z,26.28
2017-05-12T11:54:58.906Z,25.58
2017-05-12T11:57:27.413Z,27.07
2017-05-12T11:59:55.734Z,25.12
2017-05-12T12:02:24.069Z,24.20
2017-05-12T12:04:52.536Z,23.63
2017-05-12T12:07:20.898Z,22.07
2017-05-12T12:09:49.251Z,23.38
2017-05-12T12:12:17.629Z,24.02
2017-05-12T12:14:46.000Z,23.75
2017-05-12T12:17:14.352Z,24.00
2017-05-12T12:19:43.088Z,24.25
2017-05-12T12:22:11.424Z,21.20
2017-05-12T12:24:40.534Z,23.83
2017-05-12T12:27:08.992Z,21.82
2017-05-12T12:29:38.067Z,25.00
2017-05-12T12:32:06.409Z,23.28
2017-05-12T12:34:34.799Z,23.30
2017-05-12T12:37:03.148Z,20.57
2017-05-12T12:39:31.528Z,21.52
2017-05-12T12:41:59.955Z,20.10
2017-05-12T12:44:28.373Z,22.27
2017-05-12T12:46:56.728Z,22.58
2017-05-12T12:49:25.406Z,21.50
2017-05-12T12:51:53.860Z,22.83
2017-05-12T12:54:22.365Z,23.23
2017-05-12T12:56:50.848Z,20.97
2017-05-12T12:59:19.201Z,20.65
2017-05-12T13:01:47.548Z,25.05
2017-05-12T13:04:16.088Z,22.30
2017-05-12T13:06:45.604Z,22.56
2017-05-12T13:09:14.689Z,19.27
2017-05-12T13:11:43.242Z,20.98
2017-05-12T13:14:11.618Z,20.37
2017-05-12T13:16:39.965Z,21.85
2017-05-12T13:19:08.689Z,22.32
2017-05-12T13:24:12.768Z,20.58
2017-05-12T13:26:41.137Z,19.88
2017-05-12T13:29:10.216Z,19.02
2017-05-12T13:31:38.837Z,18.66
2017-05-12T13:34:07.161Z,21.18
2017-05-12T13:36:35.650Z,20.02
2017-05-12T13:39:04.101Z,19.58
2017-05-12T13:41:32.487Z,18.98
2017-05-12T13:44:00.833Z,21.06
2017-05-12T13:46:29.357Z,16.77
2017-05-12T13:48:57.689Z,20.10
2017-05-12T13:51:26.034Z,18.32
2017-05-12T13:53:55.265Z,17.52
2017-05-12T13:56:23.612Z,20.06
2017-05-12T13:58:52.708Z,20.36
2017-05-12T14:01:21.201Z,19.34
2017-05-12T14:03:50.291Z,17.96
2017-05-12T14:06:19.384Z,17.54
2017-05-12T14:08:48.650Z,16.75
2017-05-12T14:11:17.001Z,16.70
2017-05-12T14:13:45.333Z,16.00
2017-05-12T14:16:14.780Z,19.78
2017-05-12T14:18:43.112Z,18.98
2017-05-12T14:21:11.452Z,18.00
2017-05-12T14:23:39.923Z,19.12
2017-05-12T14:26:08.253Z,18.00
2017-05-12T14:28:37.379Z,17.90
2017-05-12T14:31:06.065Z,19.86
2017-05-12T14:33:34.406Z,17.26
2017-05-12T14:36:02.744Z,18.04
2017-05-12T14:38:31.499Z,17.07
2017-05-12T14:41:00.583Z,16.02
2017-05-12T14:43:29.675Z,15.37
2017-05-12T14:45:59.131Z,16.90
2017-05-12T14:48:27.469Z,16.02
2017-05-12T14:50:55.819Z,17.12
2017-05-12T14:53:24.286Z,15.54
2017-05-12T14:55:52.658Z,18.76
2017-05-12T14:58:21.004Z,15.08
2017-05-12T15:00:49.488Z,14.94
2017-05-12T15:03:17.851Z,15.58
2017-05-12T15:05:46.213Z,13.94
2017-05-12T15:08:15.476Z,14.88
2017-05-12T15:10:43.816Z,15.68
2017-05-12T15:13:12.160Z,16.90
2017-05-12T15:15:41.276Z,15.92
2017-05-12T15:18:09.634Z,15.34
2017-05-12T15:20:37.970Z,15.40
2017-05-12T15:23:06.496Z,13.66
2017-05-12T15:25:34.844Z,14.16
2017-05-12T15:28:03.192Z,15.00
2017-05-12T15:30:31.614Z,14.12
2017-05-12T15:32:59.984Z,15.38
2017-05-12T15:35:28.348Z,14.75
2017-05-12T15:37:56.816Z,14.68
2017-05-12T15:40:25.157Z,18.34
2017-05-12T15:42:53.522Z,19.34
2017-05-12T15:45:22.223Z,18.14
2017-05-12T15:47:50.661Z,17.30
2017-05-12T15:50:19.006Z,18.70
2017-05-12T15:52:47.540Z,18.30
2017-05-12T15:55:15.894Z,19.28
2017-05-12T15:57:44.256Z,18.27
2017-05-12T16:00:12.895Z,18.73
2017-05-12T16:02:41.245Z,19.70
2017-05-12T16:05:09.598Z,16.98
2017-05-12T16:07:38.134Z,18.25
2017-05-12T16:10:06.484Z,16.60
2017-05-12T16:12:34.845Z,19.38
2017-05-12T16:15:03.593Z,16.95
2017-05-12T16:17:31.956Z,18.72
2017-05-12T16:20:00.301Z,18.73
2017-05-12T16:22:28.828Z,16.35
2017-05-12T16:24:57.182Z,18.62
2017-05-12T16:27:25.530Z,17.27
2017-05-12T16:29:54.218Z,18.47
2017-05-12T16:32:22.568Z,16.87
2017-05-12T16:34:51.360Z,17.42
2017-05-12T16:37:19.747Z,18.35
2017-05-12T16:39:48.118Z,17.82
2017-05-12T16:42:16.534Z,16.78
2017-05-12T16:44:44.921Z,19.50
2017-05-12T16:47:13.272Z,17.05
2017-05-12T16:49:41.623Z,18.95
2017-05-12T16:52:10.040Z,17.87
2017-05-12T16:54:38.437Z,17.18
2017-05-12T16:57:07.533Z,15.08
2017-05-12T16:59:36.709Z,17.38
2017-05-12T17:02:05.076Z,18.57
2017-05-12T17:04:33.529Z,18.53
2017-05-12T17:07:02.249Z,17.23
2017-05-12T17:09:30.599Z,18.42
2017-05-12T17:11:59.044Z,17.13
2017-05-12T17:14:27.661Z,19.18
2017-05-12T17:16:55.997Z,17.65
2017-05-12T17:19:25.081Z,17.58
2017-05-12T17:21:54.292Z,20.50
2017-05-12T17:24:22.634Z,18.12
2017-05-12T17:26:51.085Z,18.58
2017-05-12T17:29:19.611Z,16.12
2017-05-12T17:31:47.992Z,18.13
2017-05-12T17:34:16.371Z,18.62
2017-05-12T17:36:44.954Z,17.05
2017-05-12T17:39:13.304Z,18.15
2017-05-12T17:41:41.657Z,18.48
2017-05-12T17:44:10.329Z,17.95
2017-05-12T17:46:38.665Z,18.78
2017-05-12T17:49:07.015Z,15.90
2017-05-12T17:51:35.668Z,17.27
2017-05-12T17:54:05.061Z,17.57
2017-05-12T17:56:33.580Z,17.95
2017-05-12T17:59:02.023Z,17.25
2017-05-12T18:01:30.504Z,17.47
2017-05-12T18:03:58.848Z,16.78
2017-05-12T18:06:27.620Z,16.73
2017-05-12T18:08:56.045Z,17.58
2017-05-12T18:11:24.437Z,17.20
2017-05-12T18:13:52.973Z,17.30
2017-05-12T18:16:21.364Z,15.37
2017-05-12T18:18:49.746Z,17.08
2017-05-12T18:21:18.336Z,16.62
2017-05-12T18:23:46.705Z,17.23
2017-05-12T18:26:25.356Z,14.77
2017-05-12T18:28:53.997Z,16.00
2017-05-12T18:31:22.756Z,14.25
2017-05-12T18:33:51.110Z,16.27
2017-05-12T18:36:28.206Z,16.37
2017-05-12T18:38:57.881Z,17.32
2017-05-12T18:41:26.435Z,19.58
2017-05-12T18:43:54.813Z,19.48
2017-05-12T18:46:23.155Z,21.88
2017-05-12T18:48:51.842Z,22.63
2017-05-12T18:51:20.218Z,25.42
2017-05-12T18:53:49.192Z,25.15
2017-05-12T18:56:18.548Z,24.70
2017-05-12T18:58:56.443Z,28.30
2017-05-12T19:01:25.610Z,26.15
2017-05-12T19:03:53.967Z,25.87
2017-05-12T19:06:22.738Z,25.08
2017-05-12T19:08:59.280Z,24.97
2017-05-12T19:11:28.247Z,24.72
2017-05-12T19:13:56.609Z,23.67
2017-05-12T19:16:25.121Z,25.32
2017-05-12T19:18:53.487Z,26.03
2017-05-12T19:21:22.134Z,24.37
2017-05-12T19:23:51.847Z,25.22
2017-05-12T19:26:31.587Z,25.58
2017-05-12T19:29:07.178Z,24.93
2017-05-12T19:31:37.790Z,25.52
2017-05-12T19:34:12.364Z,25.33
2017-05-12T19:36:41.626Z,25.98
2017-05-12T19:39:11.895Z,24.77
2017-05-12T19:41:40.456Z,27.02
2017-05-12T19:44:08.830Z,27.48
2017-05-12T19:46:37.182Z,25.00
2017-05-12T19:49:05.617Z,27.95
2017-05-12T19:51:34.701Z,26.28
2017-05-12T19:54:03.957Z,27.08
2017-05-12T19:56:33.037Z,27.68
2017-05-12T19:59:01.725Z,28.12
2017-05-12T20:01:30.230Z,25.88
2017-05-12T20:03:58.627Z,26.92
2017-05-12T20:06:26.965Z,26.85
2017-05-12T20:08:55.692Z,28.65
2017-05-12T20:11:24.212Z,26.55
2017-05-12T20:13:52.548Z,28.38
2017-05-12T20:16:21.057Z,26.90
2017-05-12T20:18:49.766Z,29.88
2017-05-12T20:21:18.106Z,28.78
2017-05-12T20:23:47.221Z,27.00
2017-05-12T20:26:16.495Z,29.32
2017-05-12T20:28:45.886Z,27.95
2017-05-12T20:31:14.245Z,29.97
2017-05-12T20:33:43.022Z,30.15
2017-05-12T20:36:11.397Z,31.33
2017-05-12T20:38:39.721Z,29.17
2017-05-12T20:41:08.334Z,31.32
2017-05-12T20:43:36.676Z,28.98
2017-05-12T20:46:05.960Z,31.60
2017-05-12T20:48:34.516Z,30.80
2017-05-12T20:51:02.844Z,33.25
2017-05-12T20:53:31.965Z,31.62
2017-05-12T20:56:00.553Z,32.53
2017-05-12T20:58:28.904Z,31.33
2017-05-12T21:00:58.785Z,33.50
2017-05-12T21:03:27.274Z,32.18
2017-05-12T21:05:55.655Z,32.27
2017-05-12T21:08:26.418Z,32.75
2017-05-12T21:10:56.311Z,34.15
2017-05-12T21:13:24.702Z,31.88
2017-05-12T21:15:53.602Z,32.25
2017-05-12T21:18:22.901Z,32.95
2017-05-12T21:20:53.906Z,33.25
2017-05-12T21:23:22.633Z,31.38
2017-05-12T21:25:51.072Z,33.50
2017-05-12T21:28:19.450Z,33.43
2017-05-12T21:30:47.968Z,32.38
2017-05-12T21:33:17.046Z,33.62
2017-05-12T21:35:45.691Z,37.95
2017-05-12T21:38:14.353Z,33.63
2017-05-12T21:40:42.705Z,34.27
2017-05-12T21:43:11.142Z,35.92
2017-05-12T21:45:40.111Z,34.35
2017-05-12T21:48:08.473Z,37.22
2017-05-12T21:50:36.809Z,36.43
2017-05-12T21:53:06.073Z,34.68
2017-05-12T21:55:34.401Z,35.40
2017-05-12T21:58:03.481Z,34.12
2017-05-12T22:00:32.191Z,37.27
2017-05-12T22:03:00.609Z,37.90
2017-05-12T22:05:35.828Z,35.02
2017-05-12T22:08:04.651Z,38.53
2017-05-12T22:10:33.009Z,34.72
2017-05-12T22:13:02.207Z,36.35
2017-05-12T22:15:30.575Z,36.10
2017-05-12T22:18:00.171Z,32.20
2017-05-12T22:20:28.551Z,32.45
2017-05-12T22:22:57.017Z,32.77
2017-05-12T22:25:26.160Z,36.85
2017-05-12T22:27:54.492Z,35.32
2017-05-12T22:30:22.831Z,34.87
2017-05-12T22:32:51.316Z,32.27
2017-05-12T22:35:19.660Z,33.45
2017-05-12T22:37:48.002Z,35.13
2017-05-12T22:40:17.315Z,31.10
2017-05-12T22:42:45.645Z,33.10
2017-05-12T22:45:13.980Z,32.50
2017-05-12T22:47:42.473Z,30.77
2017-05-12T22:50:10.844Z,33.45
2017-05-12T22:52:39.189Z,33.15
2017-05-12T22:55:08.441Z,32.33
2017-05-12T22:57:36.779Z,31.68
2017-05-12T23:00:05.166Z,31.20
2017-05-12T23:02:34.417Z,32.40
2017-05-12T23:05:02.748Z,31.80
2017-05-12T23:07:32.416Z,33.22
2017-05-12T23:10:00.897Z,33.65
2017-05-12T23:12:29.248Z,33.40
2017-05-12T23:14:57.626Z,33.98
2017-05-12T23:17:26.032Z,31.15
2017-05-12T23:19:54.375Z,30.58
2017-05-12T23:22:22.722Z,31.65
2017-05-12T23:24:51.127Z,31.50
2017-05-12T23:27:19.514Z,30.65
2017-05-12T23:29:47.852Z,32.90
2017-05-12T23:32:16.528Z,30.43
2017-05-12T23:34:45.782Z,30.57
2017-05-12T23:37:14.135Z,30.42
2017-05-12T23:39:42.842Z,28.20
2017-05-12T23:42:11.650Z,30.13
2017-05-12T23:44:40.004Z,27.20
2017-05-12T23:47:08.369Z,28.80
2017-05-12T23:49:36.704Z,27.50
2017-05-12T23:52:05.033Z,26.40
2017-05-12T23:54:33.402Z,26.15
2017-05-12T23:57:01.734Z,27.23
2017-05-12T23:59:30.085Z,25.80
